Historyczne dane pomiarowe

Dodano dane terminowe – wersja testowa.

Dane z okresu 1951-2019

Wersja bazy: 1.34 [2019-03-16, lista zmian], aktualizacja planowana na 2019-04-15

Dane meteo z obszaru Polski uzyskane na podstawie danych udostępnionych przez Instytut Meteorologii i Gospodarki Wodnej – Państwowy Instytut Badawczy.

 

Wybierz Datę:    

       

TemperaturaWilgotnośćWiatrCiśnienieOpadyŚniegCzas trwania zjawisk
 Stacja t tx tn tng RH VA  wxwx mslp ppp RRR   cm mm wxwxwxwxwxwxwx
1961-08-14 12.8 19.2 9.3--- 3.7 1.3---- 0.0------------
1961-08-13 12.5 20.2 11.0--- 8.0 1.3---- 2.5------------
1961-08-12 20.2 25.5 16.2--- 5.3 1.0---- 10.1------------
1961-08-11 24.6 31.2 18.6--- 2.7 5.0---- 1.1------------
1961-08-10 22.4 30.4 15.4--- 2.7 1.0---- 0.0------------
1961-08-09 21.2 29.3 15.4--- 1.7 0.7---- 0.0------------
1961-08-08 20.6 27.8 13.8--- 5.3 0.3---- 0.0------------
1961-08-07 23.4 27.2 19.0--- 0.0 2.3---- 0.0------------
1961-08-06 22.4 25.8 12.5--- 0.0 3.0---- 0.0------------
1961-08-05 16.1 22.5 11.5--- 4.7 0.7---- 0.0------------
1961-08-04 14.8 20.8 12.8--- 5.3 0.7---- 0.0------------
1961-08-03 17.2 23.6 9.5--- 3.7 1.7---- 2.3------------
1961-08-02 15.9 23.7 9.9--- 0.3 1.3---- 0.0------------
1961-08-01 16.0 19.4 8.6--- 4.0 3.0---- 0.0------------
1961-07-31 12.9 16.7 9.9--- 8.0 1.7---- 0.0------------
1961-07-30 11.0 12.8 10.1--- 8.0 1.0---- 14.5------------
1961-07-29 13.9 22.2 11.1--- 6.7 4.0---- 38.7------------
1961-07-28 20.2 25.0 16.7--- 4.0 2.3---- 0.0------------
1961-07-27 21.0 24.8 9.7--- 3.7 6.0---- 0.0------------
1961-07-26 13.4 20.3 4.7--- 4.0 1.0---- 0.0------------
1961-07-25 12.0 16.8 6.6--- 4.0 1.3---- 0.0------------
1961-07-24 12.6 17.4 10.6--- 6.3 0.7---- 0.0------------
1961-07-23 15.1 21.3 7.6--- 5.7 1.3---- 0.0------------
1961-07-22 13.6 18.9 11.1--- 6.3 1.7---- 1.7------------
1961-07-21 14.5 19.6 9.6--- 4.7 1.0---- 13.2------------
1961-07-20 13.5 20.2 6.1--- 8.0 0.3---- 5.5------------
1961-07-19 12.8 20.8 6.3--- 5.0 0.0---- 8.4------------
1961-07-18 13.0 18.7 8.5--- 2.3 0.7---- 0.0------------
1961-07-17 14.5 22.2 8.6--- 4.3 0.7---- 0.0------------
1961-07-16 17.6 24.8 8.5--- 6.0 5.7---- 7.0------------
1961-07-15 17.0 28.3 8.6--- 2.7 3.0---- 0.0------------
1961-07-14 13.3 27.8 12.1--- 8.0 1.7---- 8.5------------
1961-07-13 21.8 27.3 16.9--- 3.7 5.3---- 4.5------------
1961-07-12 20.5 24.3 7.7--- 2.0 5.0---- 0.0------------
1961-07-11 13.5 19.1 6.6--- 2.0 0.7---- 0.0------------
1961-07-10 13.8 18.9 11.5--- 7.7 1.3---- 0.8------------
1961-07-09 15.1 23.3 5.6--- 4.3 1.3---- 0.0------------
1961-07-08 13.4 19.7 9.1--- 2.0 1.0---- 0.0------------
1961-07-07 12.3 18.1 3.5--- 4.0 0.0---- 0.0------------
1961-07-06 11.4 18.3 7.5--- 1.3 2.3---- 0.0------------
1961-07-05 14.8 24.3 12.2--- 8.0 1.3---- 1.7------------
1961-07-04 24.0 28.7 11.9--- 3.0 3.7---- 0.0------------
1961-07-03 17.6 29.3 8.1--- 0.0 0.7---- 0.0------------
1961-07-02 17.4 25.8 8.5--- 0.3 0.3---- 0.0------------
1961-07-01 16.2 24.3 7.4--- 1.7 1.0---- 0.0------------
1961-06-30 13.7 20.3 10.6--- 4.3 0.7---- 0.0------------
1961-06-29 13.3 17.9 3.5--- 5.0 0.3---- 0.0------------
1961-06-28 14.3 28.9 9.2--- 4.7 1.7---- 16.0------------
1961-06-27 24.8 28.8 13.9--- 2.3 3.3---- 0.0------------
1961-06-26 21.1 29.1 15.4--- 3.0 3.0---- 0.0------------
1961-06-25 21.0 26.7 9.6--- 0.0 2.3---- 0.0------------
1961-06-24 16.8 24.1 9.1--- 4.3 1.0---- 0.0------------
1961-06-23 16.6 21.3 9.3--- 5.7 1.7---- 0.0------------
1961-06-22 17.1 23.8 7.6--- 0.7 0.7---- 0.3------------
1961-06-21 15.7 22.9 4.6--- 3.0 0.7---- 0.0------------
1961-06-20 14.5 19.6 12.2--- 4.0 2.3---- 0.0------------
1961-06-19 19.5 26.3 11.5--- 3.7 1.0---- 6.5------------
1961-06-18 18.7 23.3 7.5--- 3.3 2.0---- 0.0------------
1961-06-17 12.3 19.9 4.7--- 0.3 0.7---- 0.0------------
1961-06-16 12.0 18.1 9.7--- 2.0 1.3---- 0.0------------
407.9 ms

 

Źródłem pochodzenia danych jest Instytut Meteorologii i Gospodarki Wodnej – Państwowy Instytut Badawczy. Dane Instytutu Meteorologii i Gospodarki Wodnej – Państwowego Instytutu Badawczego zostały przetworzone.

Dane źródłowe można odnaleźć na stronie https://dane.imgw.pl